createdAt,value
2019-01-03T00:00:35.012Z,470.7
2019-01-03T00:01:37.463Z,470.4
2019-01-03T00:02:39.905Z,470.7
2019-01-03T00:03:42.341Z,470.5
2019-01-03T00:04:44.798Z,470.5
2019-01-03T00:05:47.223Z,470.8
2019-01-03T00:06:49.653Z,471
2019-01-03T00:07:51.807Z,471.2
2019-01-03T00:08:54.237Z,471.2
2019-01-03T00:09:56.395Z,470.9
2019-01-03T00:10:58.006Z,470.5
2019-01-03T00:12:00.166Z,470.5
2019-01-03T00:13:02.612Z,470.2
2019-01-03T00:14:04.488Z,469.8
2019-01-03T00:15:06.920Z,469.8
2019-01-03T00:16:09.081Z,469.2
2019-01-03T00:17:10.979Z,469.3
2019-01-03T00:18:13.132Z,469.6
2019-01-03T00:19:14.724Z,469.2
2019-01-03T00:20:17.155Z,469.2
2019-01-03T00:21:19.602Z,468.8
2019-01-03T00:22:22.046Z,468.6
2019-01-03T00:23:24.474Z,468.6
2019-01-03T00:24:26.935Z,468.4
2019-01-03T00:25:29.371Z,468.3
2019-01-03T00:26:31.531Z,468.3
2019-01-03T00:27:33.964Z,468.1
2019-01-03T00:28:37.986Z,468.1
2019-01-03T00:29:40.413Z,468
2019-01-03T00:30:42.850Z,467.8
2019-01-03T00:31:45.284Z,467.8
2019-01-03T00:32:47.169Z,468.2
2019-01-03T00:33:49.319Z,467.7
2019-01-03T00:34:51.499Z,467.3
2019-01-03T00:35:53.934Z,467.3
2019-01-03T00:36:56.375Z,467.1
2019-01-03T00:37:58.798Z,467.1
2019-01-03T00:39:00.961Z,466.6
2019-01-03T00:40:03.387Z,466.8
2019-01-03T00:41:05.288Z,466.8
2019-01-03T00:42:07.440Z,466.8
2019-01-03T00:43:09.610Z,466.6
2019-01-03T00:44:11.769Z,466.5
2019-01-03T00:45:14.195Z,466.6
2019-01-03T00:46:16.625Z,466.4
2019-01-03T00:47:19.051Z,466.3
2019-01-03T00:48:21.482Z,466.2
2019-01-03T00:49:23.923Z,466.1
2019-01-03T00:50:26.085Z,465.7
2019-01-03T00:51:28.519Z,465.7
2019-01-03T00:52:30.935Z,465.7
2019-01-03T00:53:33.355Z,465.5
2019-01-03T00:54:35.221Z,465.3
2019-01-03T00:55:37.649Z,464.9
2019-01-03T00:56:40.076Z,464.8
2019-01-03T00:57:42.511Z,464.7
2019-01-03T00:58:44.951Z,464.6
2019-01-03T00:59:47.367Z,464.4
2019-01-03T01:00:49.822Z,464.7
2019-01-03T01:01:51.975Z,464.4
2019-01-03T01:02:54.435Z,464.7
2019-01-03T01:03:56.852Z,464.1
2019-01-03T01:04:59.290Z,464.2
2019-01-03T01:06:01.709Z,463.8
2019-01-03T01:07:04.135Z,464
2019-01-03T01:08:06.012Z,463.8
2019-01-03T01:09:08.441Z,463.9
2019-01-03T01:10:10.875Z,463.8
2019-01-03T01:11:13.293Z,463.5
2019-01-03T01:12:15.449Z,463.7
2019-01-03T01:13:17.335Z,463.8
2019-01-03T01:14:19.194Z,463.7
2019-01-03T01:15:21.623Z,463.5
2019-01-03T01:16:23.775Z,463.3
2019-01-03T01:17:26.196Z,463.9
2019-01-03T01:18:28.616Z,463.4
2019-01-03T01:19:31.048Z,463
2019-01-03T01:20:33.475Z,463.1
2019-01-03T01:21:35.915Z,463.2
2019-01-03T01:22:38.095Z,462.9
2019-01-03T01:23:40.527Z,462.6
2019-01-03T01:24:42.950Z,462.5
2019-01-03T01:25:45.379Z,462.4
2019-01-03T01:26:47.792Z,462.6
2019-01-03T01:27:50.213Z,462.2
2019-01-03T01:28:52.645Z,462.4
2019-01-03T01:29:55.076Z,461.9
2019-01-03T01:30:57.213Z,461.9
2019-01-03T01:31:59.653Z,461.7
2019-01-03T01:33:01.525Z,461.4
2019-01-03T01:34:03.957Z,460.9
2019-01-03T01:35:06.377Z,460.9
2019-01-03T01:36:08.551Z,460.7
2019-01-03T01:37:10.978Z,460.5
2019-01-03T01:38:13.411Z,460.8
2019-01-03T01:39:15.840Z,460.6
2019-01-03T01:40:18.264Z,460.8
2019-01-03T01:41:20.696Z,460.9
2019-01-03T01:42:23.125Z,461
2019-01-03T01:43:25.543Z,460.6
2019-01-03T01:44:27.963Z,460.9
2019-01-03T01:45:30.389Z,460.5
2019-01-03T01:46:32.545Z,460.7
2019-01-03T01:47:34.724Z,461.2
2019-01-03T01:48:36.877Z,461
2019-01-03T01:49:39.035Z,461.4
2019-01-03T01:50:41.157Z,461
2019-01-03T01:51:43.575Z,460.9
2019-01-03T01:52:46.003Z,461
2019-01-03T01:53:48.433Z,460.6
2019-01-03T01:54:50.601Z,461
2019-01-03T01:55:53.016Z,461.1
2019-01-03T01:56:55.441Z,460.9
2019-01-03T01:57:57.865Z,461
2019-01-03T01:59:00.009Z,461.4
2019-01-03T02:00:02.429Z,461.1
2019-01-03T02:01:04.855Z,460.7
2019-01-03T02:02:07.015Z,460.8
2019-01-03T02:03:09.445Z,460.9
2019-01-03T02:04:11.876Z,460.7
2019-01-03T02:05:14.315Z,460.7
2019-01-03T02:06:16.731Z,460.9
2019-01-03T02:07:18.879Z,460.6
2019-01-03T02:08:21.020Z,460.9
2019-01-03T02:09:23.456Z,461
2019-01-03T02:10:25.915Z,460.5
2019-01-03T02:11:28.339Z,460.3
2019-01-03T02:12:30.768Z,460
2019-01-03T02:13:33.196Z,460.4
2019-01-03T02:14:35.373Z,460
2019-01-03T02:15:37.808Z,459.9
2019-01-03T02:16:40.241Z,459.7
2019-01-03T02:17:42.387Z,459.7
2019-01-03T02:18:44.525Z,459.6
2019-01-03T02:19:46.675Z,459.4
2019-01-03T02:20:48.269Z,459.7
2019-01-03T02:21:50.701Z,459.5
2019-01-03T02:22:52.866Z,459.5
2019-01-03T02:23:55.017Z,459.6
2019-01-03T02:24:57.442Z,459.7
2019-01-03T02:25:59.595Z,459.9
2019-01-03T02:27:01.473Z,460
2019-01-03T02:28:03.891Z,459.7
2019-01-03T02:29:06.051Z,459.9
2019-01-03T02:30:08.483Z,459.8
2019-01-03T02:31:10.915Z,460
2019-01-03T02:32:13.336Z,459.9
2019-01-03T02:33:15.479Z,459.8
2019-01-03T02:34:17.914Z,460.1
2019-01-03T02:35:20.334Z,459.9
2019-01-03T02:36:22.763Z,460.1
2019-01-03T02:37:25.234Z,460
2019-01-03T02:38:27.385Z,460.3
2019-01-03T02:39:29.840Z,460.1
2019-01-03T02:40:31.988Z,460.2
2019-01-03T02:41:34.408Z,460.1
2019-01-03T02:42:36.825Z,460.2
2019-01-03T02:43:38.969Z,460.2
2019-01-03T02:44:41.401Z,460.3
2019-01-03T02:45:43.825Z,460.4
2019-01-03T02:46:46.251Z,460.2
2019-01-03T02:47:47.871Z,460.1
2019-01-03T02:48:50.305Z,460.1
2019-01-03T02:49:52.739Z,460.3
2019-01-03T02:50:55.159Z,460.2
2019-01-03T02:51:57.586Z,460
2019-01-03T02:52:59.735Z,459.8
2019-01-03T02:54:02.155Z,459.8
2019-01-03T02:55:04.583Z,459.7
2019-01-03T02:56:06.745Z,460.1
2019-01-03T02:57:09.173Z,459.6
2019-01-03T02:58:11.343Z,459.9
2019-01-03T02:59:13.510Z,459.8
2019-01-03T03:00:15.936Z,459.6
2019-01-03T03:01:18.368Z,459.8
2019-01-03T03:02:20.566Z,459.7
2019-01-03T03:03:22.993Z,459.6
2019-01-03T03:04:25.425Z,459.9
2019-01-03T03:05:27.597Z,459.9
2019-01-03T03:06:30.026Z,460
2019-01-03T03:07:32.459Z,459.9
2019-01-03T03:08:34.885Z,459.7
2019-01-03T03:09:37.316Z,460.2
2019-01-03T03:10:39.736Z,459.5
2019-01-03T03:11:42.161Z,459.8
2019-01-03T03:12:44.588Z,460.2
2019-01-03T03:13:47.019Z,460.1
2019-01-03T03:14:49.186Z,459.9
2019-01-03T03:15:51.613Z,460
2019-01-03T03:16:54.052Z,460.1
2019-01-03T03:17:56.485Z,459.8
2019-01-03T03:18:58.650Z,459.5
2019-01-03T03:20:00.985Z,459.8
2019-01-03T03:21:03.412Z,459.1
2019-01-03T03:22:05.583Z,459.6
2019-01-03T03:23:08.015Z,459
2019-01-03T03:24:10.455Z,458.9
2019-01-03T03:25:12.336Z,459.1
2019-01-03T03:26:14.749Z,458.9
2019-01-03T03:27:17.176Z,459.4
2019-01-03T03:28:19.596Z,459.3
2019-01-03T03:29:23.485Z,459
2019-01-03T03:30:25.910Z,459.5
2019-01-03T03:31:28.068Z,459.6
2019-01-03T03:32:30.515Z,459.6
2019-01-03T03:33:32.953Z,459.9
2019-01-03T03:34:35.386Z,459.9
2019-01-03T03:35:37.527Z,459.7
2019-01-03T03:36:39.686Z,459.7
2019-01-03T03:37:42.113Z,459.6
2019-01-03T03:38:44.263Z,459.8
2019-01-03T03:39:46.415Z,459.7
2019-01-03T03:40:48.847Z,459.4
2019-01-03T03:41:51.282Z,459.5
2019-01-03T03:42:53.705Z,459.8
2019-01-03T03:43:56.132Z,459.8
2019-01-03T03:44:58.294Z,459.4
2019-01-03T03:46:00.445Z,460
2019-01-03T03:47:02.871Z,459.8
2019-01-03T03:48:05.006Z,460.2
2019-01-03T03:49:07.443Z,460.1
2019-01-03T03:50:09.900Z,459.9
2019-01-03T03:51:11.779Z,459.9
2019-01-03T03:52:14.217Z,459.7
2019-01-03T03:53:16.646Z,459.9
2019-01-03T03:54:18.801Z,460
2019-01-03T03:55:20.410Z,459.8
2019-01-03T03:56:22.625Z,459.8
2019-01-03T03:57:25.057Z,460.3
2019-01-03T03:58:26.922Z,459.9
2019-01-03T03:59:29.364Z,460
2019-01-03T04:00:31.246Z,460.1
2019-01-03T04:01:33.676Z,459.8
2019-01-03T04:02:36.106Z,460.2
2019-01-03T04:03:38.528Z,460.1
2019-01-03T04:04:40.966Z,460.1
2019-01-03T04:05:43.426Z,460.1
2019-01-03T04:06:45.850Z,460.2
2019-01-03T04:07:48.281Z,460.1
2019-01-03T04:08:50.444Z,460.1
2019-01-03T04:09:52.596Z,460
2019-01-03T04:10:54.735Z,460.1
2019-01-03T04:11:57.173Z,459.9
2019-01-03T04:12:59.054Z,460
2019-01-03T04:14:01.221Z,460.2
2019-01-03T04:15:03.393Z,460.2
2019-01-03T04:16:05.813Z,460.4
2019-01-03T04:17:08.252Z,460
2019-01-03T04:18:10.674Z,460.6
2019-01-03T04:19:13.085Z,460.5
2019-01-03T04:20:15.505Z,461.1
2019-01-03T04:21:17.923Z,461.1
2019-01-03T04:22:20.073Z,461
2019-01-03T04:23:22.494Z,460.8
2019-01-03T04:24:24.921Z,461
2019-01-03T04:25:27.073Z,461.1
2019-01-03T04:26:29.483Z,461
2019-01-03T04:27:31.906Z,461.4
2019-01-03T04:28:34.324Z,461.1
2019-01-03T04:29:36.755Z,461.5
2019-01-03T04:30:38.907Z,461.9
2019-01-03T04:31:41.339Z,461.8
2019-01-03T04:32:43.771Z,462.3
2019-01-03T04:33:45.966Z,462.6
2019-01-03T04:34:48.413Z,462.7
2019-01-03T04:35:50.845Z,462.6
2019-01-03T04:36:52.735Z,462.6
2019-01-03T04:37:55.166Z,462.7
2019-01-03T04:38:57.583Z,462.6
2019-01-03T04:39:59.998Z,462.6
2019-01-03T04:41:02.485Z,462.4
2019-01-03T04:42:05.555Z,462.5
2019-01-03T04:43:08.040Z,462.6
2019-01-03T04:44:10.254Z,462.9
2019-01-03T04:45:12.696Z,462.8
2019-01-03T04:46:14.855Z,463.1
2019-01-03T04:47:17.009Z,463.2
2019-01-03T04:48:19.447Z,463.2
2019-01-03T04:49:21.885Z,463.1
2019-01-03T04:50:24.313Z,463.1
2019-01-03T04:51:26.747Z,463.6
2019-01-03T04:52:29.176Z,463.4
2019-01-03T04:53:31.600Z,463.2
2019-01-03T04:54:34.025Z,463.1
2019-01-03T04:55:36.153Z,463.7
2019-01-03T04:56:38.289Z,463.2
2019-01-03T04:57:40.706Z,463.2
2019-01-03T04:58:43.124Z,463
2019-01-03T04:59:45.275Z,463.3
2019-01-03T05:00:47.697Z,462.9
2019-01-03T05:01:50.125Z,463
2019-01-03T05:02:52.287Z,462.3
2019-01-03T05:03:54.726Z,462.1
2019-01-03T05:04:56.862Z,462
2019-01-03T05:05:58.748Z,461.5
2019-01-03T05:07:00.719Z,461.9
2019-01-03T05:08:03.140Z,461.6
2019-01-03T05:09:05.278Z,461.4
2019-01-03T05:10:07.705Z,460.9
2019-01-03T05:11:10.146Z,461.2
2019-01-03T05:12:12.577Z,461.3
2019-01-03T05:13:14.744Z,460.8
2019-01-03T05:14:16.881Z,461.2
2019-01-03T05:15:19.306Z,460.9
2019-01-03T05:16:21.740Z,460.9
2019-01-03T05:17:24.151Z,460.7
2019-01-03T05:18:26.579Z,460.9
2019-01-03T05:19:28.996Z,460.9
2019-01-03T05:20:31.416Z,460.5
2019-01-03T05:21:33.844Z,460.6
2019-01-03T05:22:35.996Z,460.3
2019-01-03T05:23:38.143Z,460.1
2019-01-03T05:24:40.034Z,460.3
2019-01-03T05:25:42.196Z,460
2019-01-03T05:26:44.617Z,459.7
2019-01-03T05:27:47.052Z,459.7
2019-01-03T05:28:49.222Z,459.5
2019-01-03T05:29:51.382Z,459.3
2019-01-03T05:30:53.546Z,459.1
2019-01-03T05:31:55.977Z,459.2
2019-01-03T05:32:58.140Z,458.9
2019-01-03T05:34:00.003Z,459.1
2019-01-03T05:35:02.423Z,458.9
2019-01-03T05:36:04.850Z,459.3
2019-01-03T05:37:07.006Z,458.7
2019-01-03T05:38:09.154Z,459
2019-01-03T05:39:11.313Z,458.8
2019-01-03T05:40:13.474Z,459.1
2019-01-03T05:41:15.910Z,458.7
2019-01-03T05:42:18.068Z,458.7
2019-01-03T05:43:20.494Z,458.6
2019-01-03T05:44:22.656Z,458.3
2019-01-03T05:45:24.826Z,458.3
2019-01-03T05:46:28.509Z,458.1
2019-01-03T05:47:31.023Z,458
2019-01-03T05:48:33.192Z,457.4
2019-01-03T05:49:35.620Z,457.8
2019-01-03T05:50:38.053Z,457.6
2019-01-03T05:51:40.493Z,457.3
2019-01-03T05:52:42.646Z,457.6
2019-01-03T05:53:44.796Z,457.5
2019-01-03T05:54:46.960Z,457.3
2019-01-03T05:55:49.393Z,457.3
2019-01-03T05:56:51.833Z,456.9
2019-01-03T05:57:54.250Z,456.9
2019-01-03T05:58:56.126Z,456.9
2019-01-03T05:59:58.276Z,456.7
2019-01-03T06:01:00.702Z,456.6
2019-01-03T06:02:03.126Z,456.9
2019-01-03T06:03:05.554Z,456.6
2019-01-03T06:04:07.704Z,456.5
2019-01-03T06:05:09.840Z,456.3
2019-01-03T06:06:12.277Z,456.3
2019-01-03T06:07:14.689Z,456.2
2019-01-03T06:08:17.114Z,456.3
2019-01-03T06:09:19.546Z,456
2019-01-03T06:10:22.166Z,455.8
2019-01-03T06:11:24.573Z,455.6
2019-01-03T06:12:26.711Z,455.7
2019-01-03T06:13:29.137Z,455.6
2019-01-03T06:14:31.565Z,455.8
2019-01-03T06:15:33.726Z,455.8
2019-01-03T06:16:36.164Z,455.9
2019-01-03T06:17:38.312Z,455.8
2019-01-03T06:18:40.740Z,455.9
2019-01-03T06:19:42.605Z,456.1
2019-01-03T06:20:45.030Z,456.5
2019-01-03T06:21:47.464Z,456.6
2019-01-03T06:22:49.557Z,456.4
2019-01-03T06:23:51.712Z,456.3
2019-01-03T06:24:53.855Z,455.7
2019-01-03T06:25:56.294Z,456
2019-01-03T06:26:58.737Z,455.6
2019-01-03T06:28:01.163Z,455.7
2019-01-03T06:29:03.332Z,455.6
2019-01-03T06:30:05.486Z,455.4
2019-01-03T06:31:07.650Z,454.9
2019-01-03T06:32:09.523Z,455.3
2019-01-03T06:33:11.954Z,455.2
2019-01-03T06:34:14.388Z,455.2
2019-01-03T06:35:16.805Z,455
2019-01-03T06:36:19.220Z,454.9
2019-01-03T06:37:21.368Z,455
2019-01-03T06:38:23.795Z,455
2019-01-03T06:39:25.981Z,455
2019-01-03T06:40:28.116Z,454.8
2019-01-03T06:41:30.294Z,454.8
2019-01-03T06:42:32.746Z,454.8
2019-01-03T06:43:34.910Z,454.7
2019-01-03T06:44:37.348Z,454.7
2019-01-03T06:45:39.548Z,454.5
2019-01-03T06:46:41.974Z,454.9
2019-01-03T06:47:44.406Z,455.2
2019-01-03T06:48:46.833Z,454.9
2019-01-03T06:49:49.265Z,455.1
2019-01-03T06:50:51.695Z,454.8
2019-01-03T06:51:53.844Z,454.3
2019-01-03T06:52:55.997Z,454.5
2019-01-03T06:53:58.424Z,454.1
2019-01-03T06:55:00.850Z,453.6
2019-01-03T06:56:03.283Z,453.8
2019-01-03T06:57:05.424Z,453.7
2019-01-03T06:58:07.317Z,453.6
2019-01-03T06:59:09.752Z,453.6
2019-01-03T07:00:12.165Z,453.4
2019-01-03T07:01:14.606Z,453.3
2019-01-03T07:02:16.767Z,453.2
2019-01-03T07:03:18.918Z,453.2
2019-01-03T07:04:21.097Z,453
2019-01-03T07:05:23.529Z,452.7
2019-01-03T07:06:25.949Z,452.5
2019-01-03T07:07:28.370Z,452.5
2019-01-03T07:08:30.550Z,452.4
2019-01-03T07:09:32.990Z,451.7
2019-01-03T07:10:35.124Z,451.6
2019-01-03T07:11:37.576Z,451.3
2019-01-03T07:12:39.726Z,451.3
2019-01-03T07:13:42.152Z,451.5
2019-01-03T07:14:44.292Z,451.6
2019-01-03T07:15:46.713Z,451.5
2019-01-03T07:16:49.133Z,451.3
2019-01-03T07:17:51.563Z,451
2019-01-03T07:18:53.984Z,451.2
2019-01-03T07:19:56.154Z,451
2019-01-03T07:20:58.593Z,451
2019-01-03T07:22:01.008Z,451.2
2019-01-03T07:23:03.427Z,450.9
2019-01-03T07:24:05.860Z,450.6
2019-01-03T07:25:08.285Z,451.1
2019-01-03T07:26:10.714Z,450.8
2019-01-03T07:27:13.140Z,450.7
2019-01-03T07:28:15.285Z,450.2
2019-01-03T07:29:17.710Z,450.4
2019-01-03T07:30:19.876Z,450.4
2019-01-03T07:31:21.745Z,450.5
2019-01-03T07:32:24.174Z,451.1
2019-01-03T07:33:26.068Z,450.9
2019-01-03T07:34:28.518Z,450.9
2019-01-03T07:35:30.941Z,451.4
2019-01-03T07:36:33.096Z,451.7
2019-01-03T07:37:35.248Z,451.1
2019-01-03T07:38:37.673Z,451.7
2019-01-03T07:39:39.820Z,451.9
2019-01-03T07:40:42.250Z,451.7
2019-01-03T07:41:44.684Z,451.5
2019-01-03T07:42:46.586Z,451.6
2019-01-03T07:43:48.482Z,451.3
2019-01-03T07:44:50.630Z,450.9
2019-01-03T07:45:53.065Z,451.2
2019-01-03T07:46:55.483Z,451.2
2019-01-03T07:47:57.645Z,451.1
2019-01-03T07:48:59.796Z,450.9
2019-01-03T07:50:02.220Z,450.5
2019-01-03T07:51:04.660Z,450.9
2019-01-03T07:52:07.084Z,450.9
2019-01-03T07:53:09.525Z,450.9
2019-01-03T07:54:11.955Z,450.4
2019-01-03T07:55:14.381Z,450.4
2019-01-03T07:56:16.805Z,450.4
2019-01-03T07:57:19.235Z,450.6
2019-01-03T07:58:21.420Z,450.6
2019-01-03T07:59:23.557Z,450.3
2019-01-03T08:00:25.983Z,450.3
2019-01-03T08:01:28.139Z,449.6
2019-01-03T08:02:30.304Z,449.9
2019-01-03T08:03:32.740Z,449.7
2019-01-03T08:04:35.161Z,449.2
2019-01-03T08:05:37.584Z,449.6
2019-01-03T08:06:39.760Z,449.3
2019-01-03T08:07:42.195Z,449.3
2019-01-03T08:08:44.645Z,449.5
2019-01-03T08:09:46.784Z,449.4
2019-01-03T08:10:49.220Z,449.9
2019-01-03T08:11:51.638Z,449.5
2019-01-03T08:12:54.064Z,449.5
2019-01-03T08:13:56.489Z,449.2
2019-01-03T08:14:58.635Z,449
2019-01-03T08:16:01.063Z,449.4
2019-01-03T08:17:03.488Z,449.5
2019-01-03T08:18:05.937Z,449.6
2019-01-03T08:19:09.316Z,449.6
2019-01-03T08:20:11.485Z,449.9
2019-01-03T08:21:13.928Z,450.1
2019-01-03T08:22:16.359Z,449.9
2019-01-03T08:23:18.512Z,449.7
2019-01-03T08:24:20.376Z,450.4
2019-01-03T08:25:22.590Z,450.1
2019-01-03T08:26:25.006Z,450.4
2019-01-03T08:27:27.145Z,450
2019-01-03T08:28:29.575Z,450.4
2019-01-03T08:29:32.002Z,450
2019-01-03T08:30:34.152Z,450.2
2019-01-03T08:31:36.573Z,450.4
2019-01-03T08:32:39.007Z,450.5
2019-01-03T08:33:41.183Z,450.5
2019-01-03T08:34:43.597Z,450.1
2019-01-03T08:35:45.732Z,449.9
2019-01-03T08:36:47.895Z,449.5
2019-01-03T08:37:50.333Z,449.4
2019-01-03T08:38:52.763Z,449.2
2019-01-03T08:39:55.190Z,449.7
2019-01-03T08:40:57.621Z,449.5
2019-01-03T08:42:00.059Z,449.7
2019-01-03T08:43:02.506Z,449.4
2019-01-03T08:44:04.943Z,449
2019-01-03T08:45:07.372Z,449.2
2019-01-03T08:46:09.807Z,448.7
2019-01-03T08:47:12.235Z,449.1
2019-01-03T08:48:14.654Z,448.8
2019-01-03T08:49:16.826Z,448.8
2019-01-03T08:50:19.266Z,448.9
2019-01-03T08:51:21.691Z,448.6
2019-01-03T08:52:24.114Z,448.6
2019-01-03T08:53:26.555Z,448.5
2019-01-03T08:54:28.723Z,448.9
2019-01-03T08:55:30.601Z,448.8
2019-01-03T08:56:32.765Z,448.1
2019-01-03T08:57:34.917Z,449
2019-01-03T08:58:37.087Z,448.8
2019-01-03T08:59:38.980Z,448.8
2019-01-03T09:00:41.415Z,448.8
2019-01-03T09:01:43.856Z,448.9
2019-01-03T09:02:46.287Z,448.8
2019-01-03T09:03:48.712Z,449
2019-01-03T09:04:50.578Z,448.8
2019-01-03T09:05:53.007Z,448.9
2019-01-03T09:06:55.450Z,449
2019-01-03T09:07:57.628Z,449.5
2019-01-03T09:08:59.795Z,449.4
2019-01-03T09:10:01.955Z,449.1
2019-01-03T09:11:04.395Z,448.9
2019-01-03T09:12:06.293Z,449.2
2019-01-03T09:13:08.725Z,448.7
2019-01-03T09:14:11.151Z,448.9
2019-01-03T09:15:12.775Z,448.6
2019-01-03T09:16:15.203Z,448.5
2019-01-03T09:17:17.625Z,448.6
2019-01-03T09:18:19.786Z,448
2019-01-03T09:19:21.939Z,447.9
2019-01-03T09:20:24.073Z,447.7
2019-01-03T09:21:25.991Z,447.6
2019-01-03T09:22:28.415Z,447.6
2019-01-03T09:23:30.869Z,447.5
2019-01-03T09:24:33.015Z,447.7
2019-01-03T09:25:35.446Z,447.4
2019-01-03T09:26:37.882Z,447.4
2019-01-03T09:27:40.035Z,447.1
2019-01-03T09:28:42.466Z,447.4
2019-01-03T09:29:44.892Z,447.3
2019-01-03T09:30:47.062Z,447.3
2019-01-03T09:31:49.483Z,447.5
2019-01-03T09:32:51.907Z,447
2019-01-03T09:33:54.333Z,447.2
2019-01-03T09:34:56.765Z,447.1
2019-01-03T09:35:59.203Z,446.9
2019-01-03T09:37:01.353Z,447.6
2019-01-03T09:38:03.507Z,447.3
2019-01-03T09:39:05.937Z,447.1
2019-01-03T09:40:08.092Z,447.4
2019-01-03T09:41:10.519Z,447.4
2019-01-03T09:42:12.702Z,447.3
2019-01-03T09:43:14.856Z,447.7
2019-01-03T09:44:17.287Z,447.6
2019-01-03T09:45:19.717Z,447.9
2019-01-03T09:46:21.870Z,448.3
2019-01-03T09:47:24.296Z,448.1
2019-01-03T09:48:26.437Z,448
2019-01-03T09:49:28.583Z,447.6
2019-01-03T09:50:30.443Z,447.8
2019-01-03T09:51:32.579Z,447.4
2019-01-03T09:52:34.730Z,447.6
2019-01-03T09:53:36.865Z,447.7
2019-01-03T09:54:39.031Z,448
2019-01-03T09:55:41.476Z,448.5
2019-01-03T09:56:43.633Z,448.6
2019-01-03T09:57:45.498Z,448.6
2019-01-03T09:58:47.934Z,448.8
2019-01-03T09:59:50.094Z,448.5
2019-01-03T10:00:52.516Z,448.8
2019-01-03T10:01:54.423Z,448.7
2019-01-03T10:02:56.867Z,448.9
2019-01-03T10:03:59.306Z,449.2
2019-01-03T10:05:01.778Z,448.7
2019-01-03T10:06:03.929Z,449.4
2019-01-03T10:07:06.361Z,449.7
2019-01-03T10:08:08.518Z,449.5
2019-01-03T10:09:10.951Z,449.3
2019-01-03T10:10:13.396Z,449.5
2019-01-03T10:11:15.835Z,449.9
2019-01-03T10:12:17.993Z,449.9
2019-01-03T10:13:20.425Z,449.4
2019-01-03T10:14:22.844Z,449.4
2019-01-03T10:15:25.276Z,449.2
2019-01-03T10:16:27.466Z,449.9
2019-01-03T10:17:29.918Z,449.6
2019-01-03T10:18:32.356Z,449.5
2019-01-03T10:19:34.826Z,449.3
2019-01-03T10:20:37.251Z,449.7
2019-01-03T10:21:39.426Z,449.7
2019-01-03T10:22:41.874Z,450.1
2019-01-03T10:23:44.113Z,449.7
2019-01-03T10:24:46.280Z,449.9
2019-01-03T10:25:48.697Z,450.1
2019-01-03T10:26:50.848Z,450.4
2019-01-03T10:27:53.016Z,450.2
2019-01-03T10:28:55.175Z,450.1
2019-01-03T10:29:57.356Z,449.8
2019-01-03T10:30:59.514Z,449.9
2019-01-03T10:32:01.953Z,449.7
2019-01-03T10:33:04.097Z,449.9
2019-01-03T10:34:06.525Z,450.4
2019-01-03T10:35:08.953Z,450.4
2019-01-03T10:36:11.373Z,450.4
2019-01-03T10:37:13.518Z,450.1
2019-01-03T10:39:21.626Z,449.8
2019-01-03T10:40:24.059Z,449.9
2019-01-03T10:41:25.921Z,450.1
2019-01-03T10:42:28.344Z,450.2
2019-01-03T10:43:30.211Z,450.4
2019-01-03T10:44:32.649Z,450.5
2019-01-03T10:45:35.085Z,450.8
2019-01-03T10:46:37.516Z,450.8
2019-01-03T10:47:39.947Z,451.5
2019-01-03T10:48:42.383Z,451.4
2019-01-03T10:49:44.245Z,451.6
2019-01-03T10:50:46.678Z,451.6
2019-01-03T10:51:49.099Z,451.7
2019-01-03T10:52:51.535Z,451.9
2019-01-03T10:53:53.721Z,452.1
2019-01-03T10:54:56.152Z,452
2019-01-03T10:55:58.304Z,452.4
2019-01-03T10:57:00.746Z,452.7
2019-01-03T10:58:03.175Z,452.3
2019-01-03T10:59:05.592Z,452.3
2019-01-03T11:00:08.026Z,452.4
2019-01-03T11:01:10.449Z,452.6
2019-01-03T11:02:12.600Z,452.7
2019-01-03T11:03:14.754Z,453.1
2019-01-03T11:04:16.916Z,453.3
2019-01-03T11:05:19.084Z,453.8
2019-01-03T11:06:21.515Z,453.9
2019-01-03T11:07:23.412Z,453.9
2019-01-03T11:08:25.876Z,454.2
2019-01-03T11:09:28.020Z,454
2019-01-03T11:10:29.916Z,453.8
2019-01-03T11:11:32.086Z,454.4
2019-01-03T11:12:34.278Z,454.7
2019-01-03T11:13:36.507Z,454.7
2019-01-03T11:14:38.947Z,454.7
2019-01-03T11:15:40.619Z,454.7
2019-01-03T11:16:42.792Z,454.6
2019-01-03T11:17:45.226Z,454.6
2019-01-03T11:18:47.646Z,455
2019-01-03T11:19:50.070Z,455.7
2019-01-03T11:20:52.232Z,455.9
2019-01-03T11:21:54.672Z,456
2019-01-03T11:22:57.106Z,456.3
2019-01-03T11:23:58.985Z,456
2019-01-03T11:25:01.427Z,455.9
2019-01-03T11:26:03.871Z,456.2
2019-01-03T11:27:06.026Z,456
2019-01-03T11:28:08.463Z,455.7
2019-01-03T11:29:10.889Z,455.7
2019-01-03T11:30:13.318Z,456.1
2019-01-03T11:31:15.739Z,455.6
2019-01-03T11:32:17.886Z,456.2
2019-01-03T11:33:20.306Z,456.3
2019-01-03T11:34:22.163Z,457
2019-01-03T11:35:24.026Z,456.5
2019-01-03T11:36:26.186Z,456.5
2019-01-03T11:37:28.345Z,456.8
2019-01-03T11:38:30.773Z,457.2
2019-01-03T11:39:32.657Z,457.1
2019-01-03T11:40:35.089Z,456.9
2019-01-03T11:41:37.506Z,457.4
2019-01-03T11:42:39.935Z,457.4
2019-01-03T11:43:42.356Z,457.8
2019-01-03T11:44:44.505Z,457.6
2019-01-03T11:45:46.924Z,458
2019-01-03T11:46:48.794Z,457.8
2019-01-03T11:47:51.215Z,458.4
2019-01-03T11:48:53.088Z,458.3
2019-01-03T11:49:55.522Z,458.5
2019-01-03T11:50:57.689Z,458.8
2019-01-03T11:51:59.843Z,459
2019-01-03T11:53:02.001Z,459
2019-01-03T11:54:04.160Z,459.1
2019-01-03T11:55:06.298Z,459.2
2019-01-03T11:56:08.734Z,459.6
2019-01-03T11:57:11.155Z,459.7
2019-01-03T11:58:13.700Z,460.1
2019-01-03T11:59:15.854Z,460
2019-01-03T12:00:18.297Z,460.3
2019-01-03T12:01:20.716Z,460.7
2019-01-03T12:03:28.126Z,460.7
2019-01-03T12:04:30.574Z,460.9
2019-01-03T12:05:32.741Z,460.8
2019-01-03T12:06:34.886Z,460.4
2019-01-03T12:07:37.306Z,461
2019-01-03T12:08:39.746Z,461.1
2019-01-03T12:09:42.175Z,461.8
2019-01-03T12:10:44.594Z,461.8
2019-01-03T12:11:46.737Z,462.1
2019-01-03T12:12:49.179Z,462.1
2019-01-03T12:13:51.607Z,461.9
2019-01-03T12:14:54.034Z,462
2019-01-03T12:15:55.909Z,462.1
2019-01-03T12:16:58.101Z,462.1
2019-01-03T12:18:00.250Z,462.5
2019-01-03T12:19:02.696Z,462.6
2019-01-03T12:20:05.126Z,462.8
2019-01-03T12:21:07.258Z,462.9
2019-01-03T12:22:09.682Z,463
2019-01-03T12:23:11.861Z,462.9
2019-01-03T12:24:13.768Z,462.5
2019-01-03T12:25:16.236Z,462.8
2019-01-03T12:26:18.396Z,463.2
2019-01-03T12:27:20.300Z,463.2
2019-01-03T12:28:22.724Z,463.3
2019-01-03T12:29:25.177Z,463.5
2019-01-03T12:30:27.614Z,463.4
2019-01-03T12:31:30.056Z,463.2
2019-01-03T12:32:32.485Z,463.4
2019-01-03T12:33:34.910Z,463
2019-01-03T12:34:37.351Z,463.4
2019-01-03T12:35:39.539Z,463.2
2019-01-03T12:36:41.977Z,463.3
2019-01-03T12:37:44.423Z,463.3
2019-01-03T12:38:46.859Z,463.1
2019-01-03T12:39:49.299Z,462.9
2019-01-03T12:40:51.718Z,463.5
2019-01-03T12:41:54.150Z,462.8
2019-01-03T12:42:56.018Z,462.9
2019-01-03T12:43:58.449Z,462.5
2019-01-03T12:45:00.643Z,462.7
2019-01-03T12:46:02.543Z,462.5
2019-01-03T12:47:04.720Z,462.6
2019-01-03T12:48:07.177Z,462.9
2019-01-03T12:49:09.345Z,462.7
2019-01-03T12:50:11.489Z,462.6
2019-01-03T12:51:13.911Z,463.2
2019-01-03T12:52:16.344Z,463.4
2019-01-03T12:53:18.785Z,463.3
2019-01-03T12:54:20.670Z,463.5
2019-01-03T12:55:22.821Z,462.9
2019-01-03T12:56:25.255Z,463
2019-01-03T12:57:27.394Z,462.6
2019-01-03T12:58:28.996Z,462.7
2019-01-03T12:59:30.866Z,463.4
2019-01-03T13:00:32.737Z,463
2019-01-03T13:01:35.170Z,463
2019-01-03T13:02:36.786Z,463
2019-01-03T13:03:38.937Z,463.1
2019-01-03T13:04:41.088Z,463.1
2019-01-03T13:05:43.528Z,463.2
2019-01-03T13:06:45.686Z,462.7
2019-01-03T13:07:48.129Z,462.5
2019-01-03T13:08:50.557Z,462.9
2019-01-03T13:09:52.989Z,462.7
2019-01-03T13:10:55.152Z,462.7
2019-01-03T13:11:57.598Z,462.8
2019-01-03T13:13:00.036Z,462.4
2019-01-03T13:14:02.473Z,462.6
2019-01-03T13:15:04.348Z,462.7
2019-01-03T13:16:06.797Z,462.9
2019-01-03T13:17:08.956Z,462.6
2019-01-03T13:18:11.379Z,463.1
2019-01-03T13:19:13.255Z,463.3
2019-01-03T13:20:15.694Z,463
2019-01-03T13:21:17.558Z,463.5
2019-01-03T13:22:19.984Z,463.1
2019-01-03T13:23:22.428Z,463.5
2019-01-03T13:24:24.342Z,463.6
2019-01-03T13:25:26.764Z,463.7
2019-01-03T13:26:28.894Z,463.9
2019-01-03T13:27:30.800Z,463.7
2019-01-03T13:28:32.941Z,463.9
2019-01-03T13:29:35.368Z,464